Time;durP1;ratioP1;P1;durP2;ratioP2;P2;SDS_P1;SDS_P2;PMS_P1;PMS_P2;Temp;Humidity;BMP_temperature;BMP_pressure;BME280_temperature;BME280_humidity;BME280_pressure;Samples;Min_cycle;Max_cycle;Signal;HPM_P1;HPM_P2
2021/10/24 00:00:43;;;;;;;25.35;15.32;;;12.40;99.90;;;;;;5054473;28;20394;-81
2021/10/24 00:03:09;;;;;;;27.92;15.95;;;12.40;99.90;;;;;;5036726;28;20036;-81
2021/10/24 00:05:35;;;;;;;24.10;14.38;;;12.40;99.90;;;;;;5054588;28;20475;-82
2021/10/24 00:08:01;;;;;;;27.63;16.30;;;12.40;99.90;;;;;;5054214;28;20032;-82
2021/10/24 00:10:26;;;;;;;28.85;15.43;;;12.50;99.90;;;;;;5054519;28;20028;-82
2021/10/24 00:12:52;;;;;;;27.30;14.50;;;12.50;99.90;;;;;;5054579;28;20025;-81
2021/10/24 00:15:18;;;;;;;25.63;14.50;;;12.50;99.90;;;;;;5052872;28;20020;-82
2021/10/24 00:17:43;;;;;;;23.83;13.63;;;12.50;99.90;;;;;;5033143;28;20095;-81
2021/10/24 00:20:10;;;;;;;23.23;14.43;;;12.50;99.90;;;;;;5034497;28;20033;-81
2021/10/24 00:22:35;;;;;;;23.48;14.07;;;12.50;99.90;;;;;;5034420;28;20100;-83
2021/10/24 00:25:02;;;;;;;25.98;14.18;;;12.50;99.90;;;;;;5031175;28;20124;-82
2021/10/24 00:27:28;;;;;;;24.80;13.80;;;12.50;99.90;;;;;;5033809;28;20036;-82
2021/10/24 00:29:53;;;;;;;28.40;14.13;;;12.50;99.90;;;;;;5033048;28;20120;-82
2021/10/24 00:32:22;;;;;;;27.25;14.43;;;12.50;99.90;;;;;;5033490;28;20052;-81
2021/10/24 00:34:48;;;;;;;24.50;14.13;;;12.40;99.90;;;;;;5034220;28;20032;-81
2021/10/24 00:37:13;;;;;;;24.83;14.20;;;12.40;99.90;;;;;;5032803;28;20017;-82
2021/10/24 00:39:39;;;;;;;24.58;12.98;;;12.40;99.90;;;;;;5036037;28;20486;-82
2021/10/24 00:42:05;;;;;;;26.27;13.07;;;12.30;99.90;;;;;;5052312;28;20487;-82
2021/10/24 00:44:33;;;;;;;26.77;14.30;;;12.30;99.90;;;;;;5033941;28;20067;-82
2021/10/24 00:47:00;;;;;;;24.73;14.35;;;12.30;99.90;;;;;;5032533;28;20056;-81
2021/10/24 00:49:26;;;;;;;26.80;15.00;;;12.30;99.90;;;;;;5030797;28;21423;-82
2021/10/24 00:51:53;;;;;;;27.17;13.40;;;12.30;99.90;;;;;;5033961;28;20029;-82
2021/10/24 00:54:22;;;;;;;24.15;15.70;;;12.30;99.90;;;;;;5032551;28;20112;-82
2021/10/24 00:56:50;;;;;;;29.13;14.93;;;12.30;99.90;;;;;;5033170;28;20029;-81
2021/10/24 00:59:16;;;;;;;25.85;14.15;;;12.30;99.90;;;;;;5032526;28;20244;-81
2021/10/24 01:01:43;;;;;;;22.77;12.85;;;12.30;99.90;;;;;;5032854;28;20021;-82
2021/10/24 01:04:09;;;;;;;25.73;14.48;;;12.20;99.90;;;;;;5033590;28;20036;-82
2021/10/24 01:06:37;;;;;;;28.52;14.40;;;12.20;99.90;;;;;;5033658;28;20025;-82
2021/10/24 01:09:06;;;;;;;27.58;15.75;;;12.20;99.90;;;;;;5035373;28;20021;-82
2021/10/24 01:11:32;;;;;;;26.10;13.30;;;12.20;99.90;;;;;;5053449;28;20051;-82
2021/10/24 01:13:58;;;;;;;25.00;14.43;;;12.20;99.90;;;;;;5053327;28;20390;-81
2021/10/24 01:16:25;;;;;;;23.52;14.98;;;12.20;99.90;;;;;;5046917;28;20029;-83
2021/10/24 01:18:51;;;;;;;22.17;13.88;;;12.20;99.90;;;;;;5035371;28;20107;-82
2021/10/24 01:21:17;;;;;;;26.58;15.43;;;12.30;99.90;;;;;;5052754;28;20033;-82
2021/10/24 01:23:44;;;;;;;24.63;15.07;;;12.30;99.90;;;;;;5053150;28;20025;-82
2021/10/24 01:26:10;;;;;;;26.33;13.52;;;12.30;99.90;;;;;;5052743;28;20292;-82
2021/10/24 01:28:36;;;;;;;23.95;14.52;;;12.40;99.90;;;;;;5052544;28;20419;-82
2021/10/24 01:31:02;;;;;;;22.48;13.55;;;12.40;99.90;;;;;;5052828;28;20033;-82
2021/10/24 01:33:28;;;;;;;26.20;13.82;;;12.50;99.90;;;;;;5053068;28;20025;-83
2021/10/24 01:35:55;;;;;;;24.02;14.38;;;12.50;99.90;;;;;;5052870;28;20021;-82
2021/10/24 01:38:22;;;;;;;23.95;13.25;;;12.50;99.90;;;;;;5052566;28;20017;-83
2021/10/24 01:40:48;;;;;;;24.10;14.23;;;12.50;99.90;;;;;;5051635;28;20585;-83
2021/10/24 01:43:14;;;;;;;22.98;13.07;;;12.60;99.90;;;;;;5052830;28;20379;-82
2021/10/24 01:45:40;;;;;;;26.05;14.10;;;12.60;99.90;;;;;;5053893;28;20025;-82
2021/10/24 01:48:06;;;;;;;27.08;14.73;;;12.60;99.90;;;;;;5052884;28;20403;-82
2021/10/24 01:50:31;;;;;;;22.13;13.73;;;12.60;99.90;;;;;;5052269;28;20029;-82
2021/10/24 01:52:57;;;;;;;24.65;14.00;;;12.60;99.90;;;;;;5052374;28;20028;-82
2021/10/24 01:55:23;;;;;;;23.92;14.38;;;12.60;99.90;;;;;;5052073;28;20090;-82
2021/10/24 01:57:52;;;;;;;22.50;13.63;;;12.50;99.90;;;;;;5053308;28;20017;-82
2021/10/24 02:00:18;;;;;;;23.90;13.57;;;12.60;99.90;;;;;;5032896;28;20051;-82
2021/10/24 02:02:47;;;;;;;26.65;13.98;;;12.60;99.90;;;;;;5051814;28;20036;-82
2021/10/24 02:05:16;;;;;;;23.88;13.73;;;12.70;99.90;;;;;;5051078;28;20029;-82
2021/10/24 02:07:42;;;;;;;23.25;12.88;;;12.70;99.90;;;;;;5050780;28;20033;-82
2021/10/24 02:10:14;;;;;;;21.55;13.15;;;12.70;99.90;;;;;;5051135;28;20082;-82
2021/10/24 02:12:41;;;;;;;22.02;13.57;;;12.70;99.90;;;;;;5051805;28;20079;-82
2021/10/24 02:15:09;;;;;;;22.95;12.88;;;12.80;99.90;;;;;;5051710;28;20013;-82
2021/10/24 02:17:35;;;;;;;23.45;13.02;;;12.80;99.90;;;;;;5052008;28;20120;-82
2021/10/24 02:20:01;;;;;;;24.50;13.85;;;12.80;99.90;;;;;;5050542;28;20112;-83
2021/10/24 02:22:27;;;;;;;20.58;13.07;;;12.80;99.90;;;;;;5050501;28;20033;-83
2021/10/24 02:24:53;;;;;;;21.13;12.98;;;12.80;99.90;;;;;;5051245;28;20025;-82
2021/10/24 02:27:19;;;;;;;21.25;12.27;;;12.80;99.90;;;;;;5050882;28;20025;-82
2021/10/24 02:29:46;;;;;;;23.23;13.32;;;12.80;99.90;;;;;;5051139;28;20052;-82
2021/10/24 02:32:12;;;;;;;19.85;12.88;;;12.80;99.90;;;;;;5027817;28;20033;-82
2021/10/24 02:34:38;;;;;;;19.48;12.82;;;12.80;99.90;;;;;;5051646;28;20390;-82
2021/10/24 02:37:04;;;;;;;20.23;12.32;;;12.80;99.90;;;;;;5051547;28;20025;-82
2021/10/24 02:39:29;;;;;;;22.00;12.07;;;12.80;99.90;;;;;;5051735;28;20082;-82
2021/10/24 02:41:55;;;;;;;17.88;12.05;;;12.90;99.90;;;;;;5050786;28;20032;-82
2021/10/24 02:44:22;;;;;;;17.67;12.35;;;12.90;99.90;;;;;;5032414;28;20032;-82
2021/10/24 02:46:49;;;;;;;20.08;12.85;;;12.90;99.90;;;;;;5032536;28;20079;-82
2021/10/24 02:49:15;;;;;;;19.25;12.32;;;12.90;99.90;;;;;;5032504;28;20031;-82
2021/10/24 02:51:41;;;;;;;21.65;13.13;;;12.90;99.90;;;;;;5050459;28;20029;-83
2021/10/24 02:54:07;;;;;;;20.30;12.82;;;12.80;99.90;;;;;;5050280;28;20387;-82
2021/10/24 02:56:33;;;;;;;21.30;12.90;;;12.80;99.90;;;;;;5050367;28;20031;-82
2021/10/24 02:58:59;;;;;;;20.50;13.02;;;12.80;99.90;;;;;;5050248;28;20364;-81
2021/10/24 03:01:24;;;;;;;19.63;12.57;;;12.80;99.90;;;;;;5050046;28;20045;-82
2021/10/24 03:03:50;;;;;;;22.52;13.48;;;12.80;99.90;;;;;;5050383;28;20104;-76
2021/10/24 03:06:16;;;;;;;20.88;11.68;;;12.90;99.90;;;;;;5032616;28;20029;-77
2021/10/24 03:08:41;;;;;;;19.80;11.75;;;12.90;99.90;;;;;;5049384;28;20025;-77
2021/10/24 03:11:07;;;;;;;21.50;12.10;;;12.90;99.90;;;;;;5051502;28;20032;-77
2021/10/24 03:13:33;;;;;;;20.48;12.27;;;12.90;99.90;;;;;;5049940;28;20021;-77
2021/10/24 03:15:59;;;;;;;18.55;11.52;;;12.80;99.90;;;;;;5051332;28;20021;-77
2021/10/24 03:18:24;;;;;;;19.25;11.02;;;12.80;99.90;;;;;;5052341;28;20503;-77
2021/10/24 03:20:50;;;;;;;19.13;11.75;;;12.80;99.90;;;;;;5054124;28;20025;-77
2021/10/24 03:23:16;;;;;;;18.05;12.20;;;12.80;99.90;;;;;;5055424;28;20052;-77
2021/10/24 03:25:42;;;;;;;21.33;11.98;;;12.80;99.90;;;;;;5055330;28;20045;-77
2021/10/24 03:28:07;;;;;;;19.90;12.20;;;12.80;99.90;;;;;;5053961;28;20418;-77
2021/10/24 03:30:33;;;;;;;19.25;11.05;;;12.80;99.90;;;;;;5054055;28;20025;-76
2021/10/24 03:32:59;;;;;;;19.77;11.88;;;12.80;99.90;;;;;;5055368;28;20021;-77
2021/10/24 03:35:24;;;;;;;18.42;11.57;;;12.80;99.90;;;;;;5054949;28;20029;-77
2021/10/24 03:37:50;;;;;;;20.13;11.43;;;12.80;99.90;;;;;;5053854;28;20020;-77
2021/10/24 03:40:16;;;;;;;21.60;12.82;;;12.70;99.90;;;;;;5055102;28;20031;-77
2021/10/24 03:42:42;;;;;;;23.27;11.27;;;12.70;99.90;;;;;;5053823;28;20505;-77
2021/10/24 03:45:09;;;;;;;18.02;11.65;;;12.70;99.90;;;;;;5053686;28;20429;-77
2021/10/24 03:47:36;;;;;;;19.10;12.27;;;12.70;99.90;;;;;;5054751;28;20025;-77
2021/10/24 03:50:03;;;;;;;16.92;11.40;;;12.70;99.90;;;;;;5057543;28;20025;-77
2021/10/24 03:52:29;;;;;;;19.92;11.18;;;12.70;99.90;;;;;;5054863;28;20052;-77
2021/10/24 03:54:55;;;;;;;20.55;12.20;;;12.60;99.90;;;;;;5054915;28;20053;-76
2021/10/24 03:57:20;;;;;;;18.75;11.60;;;12.60;99.90;;;;;;5054625;28;20079;-77
2021/10/24 03:59:47;;;;;;;18.63;11.40;;;12.50;99.90;;;;;;5054918;28;20029;-77
2021/10/24 04:02:13;;;;;;;19.90;10.77;;;12.50;99.90;;;;;;5054877;28;20009;-77
2021/10/24 04:04:39;;;;;;;20.40;12.50;;;12.50;99.90;;;;;;5036806;28;20487;-77
2021/10/24 04:07:05;;;;;;;17.88;11.13;;;12.50;99.90;;;;;;5036555;28;20025;-77
2021/10/24 04:09:31;;;;;;;20.20;11.40;;;12.50;99.90;;;;;;5054453;28;20032;-77
2021/10/24 04:11:57;;;;;;;19.95;11.40;;;12.50;99.90;;;;;;5053260;28;20072;-77
2021/10/24 04:14:25;;;;;;;16.63;10.70;;;12.40;99.90;;;;;;5054466;28;20021;-77
2021/10/24 04:16:51;;;;;;;19.95;11.93;;;12.40;99.90;;;;;;5054202;28;20037;-77
2021/10/24 04:19:17;;;;;;;19.73;11.35;;;12.30;99.90;;;;;;5054467;28;20116;-77
2021/10/24 04:21:43;;;;;;;18.65;12.00;;;12.30;99.90;;;;;;5053155;28;20033;-77
2021/10/24 04:24:09;;;;;;;19.00;11.45;;;12.30;99.90;;;;;;5053118;28;20101;-77
2021/10/24 04:26:35;;;;;;;16.80;11.02;;;12.30;99.90;;;;;;5054209;28;20025;-77
2021/10/24 04:29:00;;;;;;;17.88;11.68;;;12.20;99.90;;;;;;5054268;28;20110;-77
2021/10/24 04:31:26;;;;;;;17.33;10.95;;;12.20;99.90;;;;;;5033991;28;20108;-76
2021/10/24 04:33:52;;;;;;;20.17;11.73;;;12.20;99.90;;;;;;5054503;28;20096;-76
2021/10/24 04:36:19;;;;;;;18.17;11.35;;;12.20;99.90;;;;;;5054360;28;20360;-77
2021/10/24 04:38:44;;;;;;;19.27;10.43;;;12.20;99.90;;;;;;5054258;28;20025;-77
2021/10/24 04:41:10;;;;;;;20.25;11.45;;;12.20;99.90;;;;;;5054042;28;20044;-77
2021/10/24 04:43:36;;;;;;;20.50;11.90;;;12.10;99.90;;;;;;5036242;28;20475;-76
2021/10/24 04:46:02;;;;;;;17.05;11.52;;;12.20;99.90;;;;;;5035943;28;20025;-76
2021/10/24 04:48:27;;;;;;;17.17;11.15;;;12.10;99.90;;;;;;5053997;28;20622;-76
2021/10/24 04:50:53;;;;;;;18.20;11.63;;;12.10;99.90;;;;;;5036043;28;20025;-76
2021/10/24 04:53:19;;;;;;;19.33;11.70;;;12.00;99.90;;;;;;5053703;28;20576;-77
2021/10/24 04:55:45;;;;;;;17.65;11.60;;;12.00;99.90;;;;;;5036355;28;20025;-77
2021/10/24 04:58:11;;;;;;;15.32;10.77;;;11.90;99.90;;;;;;5054743;28;20490;-77
2021/10/24 05:00:37;;;;;;;22.88;11.85;;;11.90;99.90;;;;;;5054682;28;20108;-76
2021/10/24 05:03:03;;;;;;;21.20;12.13;;;11.90;99.90;;;;;;5054741;28;20086;-76
2021/10/24 05:05:29;;;;;;;19.25;11.30;;;11.90;99.90;;;;;;5054798;28;20463;-76
2021/10/24 05:07:55;;;;;;;18.02;11.48;;;11.80;99.90;;;;;;5054579;28;20035;-76
2021/10/24 05:10:20;;;;;;;16.15;11.00;;;11.80;99.90;;;;;;5036737;28;20021;-76
2021/10/24 05:12:46;;;;;;;18.98;11.18;;;11.70;99.90;;;;;;5036546;28;20021;-77
2021/10/24 05:15:12;;;;;;;19.88;11.57;;;11.80;99.90;;;;;;5035673;28;20025;-76
2021/10/24 05:17:38;;;;;;;17.55;11.18;;;11.80;99.90;;;;;;5035698;28;20053;-76
2021/10/24 05:20:05;;;;;;;17.65;11.63;;;11.70;99.90;;;;;;5053512;28;20391;-76
2021/10/24 05:22:31;;;;;;;12.68;9.75;;;11.70;99.90;;;;;;5053639;28;20020;-76
2021/10/24 05:24:57;;;;;;;17.23;11.55;;;11.70;99.90;;;;;;5053261;28;20021;-77
2021/10/24 05:27:23;;;;;;;19.30;12.20;;;11.60;99.90;;;;;;5053727;28;20359;-77
2021/10/24 05:29:49;;;;;;;18.60;11.27;;;11.60;99.90;;;;;;5055076;28;20036;-77
2021/10/24 05:32:14;;;;;;;16.73;10.88;;;11.50;99.90;;;;;;5057470;28;20103;-77
2021/10/24 05:34:42;;;;;;;16.25;12.48;;;11.50;99.90;;;;;;5034056;28;20379;-76
2021/10/24 05:37:08;;;;;;;20.63;11.45;;;11.50;99.90;;;;;;5053208;28;20433;-76
2021/10/24 05:39:33;;;;;;;18.27;11.20;;;11.40;99.90;;;;;;5049294;28;20037;-76
2021/10/24 05:42:00;;;;;;;19.25;12.38;;;11.40;99.90;;;;;;5051296;28;20025;-76
2021/10/24 05:44:26;;;;;;;18.30;11.90;;;11.40;99.90;;;;;;5053187;28;20033;-76
2021/10/24 05:46:53;;;;;;;17.52;11.32;;;11.40;99.90;;;;;;5052839;28;20029;-76
2021/10/24 05:49:19;;;;;;;16.65;10.98;;;11.30;99.90;;;;;;5048484;28;20029;-76
2021/10/24 05:51:46;;;;;;;18.42;11.10;;;11.30;99.90;;;;;;5051639;28;20096;-76
2021/10/24 05:54:12;;;;;;;16.08;10.45;;;11.30;99.90;;;;;;5033178;28;20025;-76
2021/10/24 05:56:38;;;;;;;20.05;11.90;;;11.30;99.90;;;;;;5051087;28;20070;-76
2021/10/24 05:59:04;;;;;;;16.00;11.43;;;11.30;99.90;;;;;;5051487;28;20364;-76
2021/10/24 06:01:30;;;;;;;15.95;10.15;;;11.30;99.90;;;;;;5051866;28;20036;-78
2021/10/24 06:03:55;;;;;;;15.38;9.75;;;11.30;99.90;;;;;;5053370;28;20029;-76
2021/10/24 06:06:21;;;;;;;17.38;10.65;;;11.30;99.90;;;;;;5035440;28;20056;-76
2021/10/24 06:08:47;;;;;;;18.90;10.18;;;11.30;99.90;;;;;;5052972;28;20102;-77
2021/10/24 06:11:45;;;;;;;16.83;10.73;;;11.30;99.90;;;;;;5052897;28;20025;-76
2021/10/24 06:13:59;;;;;;;17.70;10.25;;;11.30;99.90;;;;;;5052440;28;20032;-77
2021/10/24 06:16:25;;;;;;;14.70;10.10;;;11.30;99.90;;;;;;5052813;28;20036;-77
2021/10/24 06:18:51;;;;;;;13.85;9.98;;;11.30;99.90;;;;;;5051934;28;20017;-76
2021/10/24 06:21:17;;;;;;;16.40;9.75;;;11.30;99.90;;;;;;5033339;28;20017;-76
2021/10/24 06:23:43;;;;;;;13.63;9.48;;;11.30;99.90;;;;;;5034096;28;20116;-82
2021/10/24 06:26:09;;;;;;;12.38;9.25;;;11.30;99.90;;;;;;5051926;28;20094;-82
2021/10/24 06:28:35;;;;;;;13.57;9.20;;;11.30;99.90;;;;;;5034166;28;20032;-82
2021/10/24 06:31:01;;;;;;;11.82;8.77;;;11.30;99.90;;;;;;5051871;28;20096;-82
2021/10/24 06:33:27;;;;;;;12.80;8.95;;;11.20;99.90;;;;;;5052002;28;20108;-83
2021/10/24 06:35:53;;;;;;;10.95;8.85;;;11.30;99.90;;;;;;5051979;28;20028;-83
2021/10/24 06:38:20;;;;;;;13.80;9.55;;;11.30;99.90;;;;;;5051679;28;20083;-82
2021/10/24 06:40:46;;;;;;;12.30;8.98;;;11.30;99.90;;;;;;5031783;28;20044;-83
2021/10/24 06:43:12;;;;;;;14.70;9.05;;;11.30;99.90;;;;;;5051870;28;20031;-82
2021/10/24 06:45:38;;;;;;;15.80;9.13;;;11.40;99.90;;;;;;5051657;28;20109;-82
2021/10/24 06:48:04;;;;;;;12.07;8.95;;;11.30;99.90;;;;;;5033772;28;20033;-82
2021/10/24 06:50:30;;;;;;;15.88;9.60;;;11.40;99.90;;;;;;5051809;28;20025;-82
2021/10/24 06:52:56;;;;;;;14.43;9.88;;;11.40;99.90;;;;;;5050847;28;20033;-83
2021/10/24 06:55:21;;;;;;;15.60;9.65;;;11.50;99.90;;;;;;5051646;28;20048;-83
2021/10/24 06:57:51;;;;;;;12.23;8.93;;;11.50;99.90;;;;;;5051515;28;20021;-81
2021/10/24 07:00:19;;;;;;;15.50;9.98;;;11.50;99.90;;;;;;5033791;28;20017;-82
2021/10/24 07:02:45;;;;;;;14.77;8.50;;;11.50;99.90;;;;;;5051455;28;20025;-83
2021/10/24 07:05:10;;;;;;;13.55;9.32;;;11.50;99.90;;;;;;5051385;28;20367;-82
2021/10/24 07:07:36;;;;;;;13.75;8.48;;;11.50;99.90;;;;;;5051426;28;20025;-83
2021/10/24 07:10:04;;;;;;;11.57;8.10;;;11.50;99.90;;;;;;5033499;28;20491;-82
2021/10/24 07:12:30;;;;;;;13.02;8.95;;;11.60;99.90;;;;;;5051265;28;20044;-83
2021/10/24 07:14:58;;;;;;;14.77;9.05;;;11.60;99.90;;;;;;5033578;28;20068;-83
2021/10/24 07:17:24;;;;;;;13.88;8.82;;;11.70;99.90;;;;;;5051411;28;20056;-83
2021/10/24 07:19:50;;;;;;;14.82;9.13;;;11.70;99.90;;;;;;5033373;28;20075;-82
2021/10/24 07:22:15;;;;;;;13.77;8.65;;;11.80;99.90;;;;;;5051424;28;20025;-83
2021/10/24 07:24:41;;;;;;;11.38;8.55;;;11.80;99.90;;;;;;5051224;28;20021;-82
2021/10/24 07:27:07;;;;;;;12.88;8.77;;;11.90;99.90;;;;;;5051142;28;20036;-82
2021/10/24 07:29:33;;;;;;;11.07;7.78;;;11.90;99.90;;;;;;5051275;28;20120;-82
2021/10/24 07:31:58;;;;;;;16.38;8.55;;;11.90;99.90;;;;;;5051175;28;20025;-82
2021/10/24 07:34:25;;;;;;;11.18;7.82;;;11.90;99.90;;;;;;5051251;28;20029;-82
2021/10/24 07:36:51;;;;;;;12.68;8.18;;;12.00;99.90;;;;;;5033327;28;20033;-83
2021/10/24 07:39:17;;;;;;;15.00;9.10;;;12.00;99.90;;;;;;5051213;28;20025;-82
2021/10/24 07:41:45;;;;;;;11.45;8.20;;;12.00;99.90;;;;;;5051092;28;20283;-82
2021/10/24 07:44:12;;;;;;;12.70;8.85;;;12.00;99.90;;;;;;5051066;28;20029;-82
2021/10/24 07:46:38;;;;;;;14.27;8.35;;;12.10;99.90;;;;;;5033126;28;20032;-82
2021/10/24 07:49:04;;;;;;;9.80;8.27;;;12.20;99.90;;;;;;5033168;28;20399;-82
2021/10/24 07:51:30;;;;;;;10.90;7.70;;;12.20;99.90;;;;;;5050890;28;20051;-81
2021/10/24 07:53:56;;;;;;;9.75;7.65;;;12.20;99.90;;;;;;5033176;28;20100;-82
2021/10/24 07:56:23;;;;;;;12.30;8.38;;;12.30;99.90;;;;;;5035415;28;20043;-82
2021/10/24 07:58:48;;;;;;;11.73;8.02;;;12.30;99.90;;;;;;5050963;28;20025;-82
2021/10/24 08:01:18;;;;;;;10.40;7.78;;;12.40;99.90;;;;;;5033147;28;20029;-81
2021/10/24 08:03:46;;;;;;;13.68;9.68;;;12.50;99.90;;;;;;5033160;28;20029;-82
2021/10/24 08:06:12;;;;;;;13.55;9.90;;;12.50;99.90;;;;;;5036634;28;20487;-82
2021/10/24 08:08:38;;;;;;;15.60;9.70;;;12.60;99.90;;;;;;5054432;28;20099;-81
2021/10/24 08:11:05;;;;;;;15.93;10.52;;;12.60;99.90;;;;;;5054641;28;20430;-82
2021/10/24 08:13:31;;;;;;;18.77;10.23;;;12.60;99.90;;;;;;5036550;28;20531;-82
2021/10/24 08:15:57;;;;;;;17.33;10.63;;;12.70;99.90;;;;;;5054357;28;20012;-82
2021/10/24 08:18:22;;;;;;;13.20;8.40;;;12.80;99.90;;;;;;5036533;28;20051;-82
2021/10/24 08:20:48;;;;;;;12.60;8.52;;;12.90;99.90;;;;;;5054481;28;20032;-82
2021/10/24 08:23:18;;;;;;;11.30;8.13;;;12.90;99.90;;;;;;5054137;28;20032;-81
2021/10/24 08:25:45;;;;;;;15.80;8.88;;;13.00;99.90;;;;;;5036264;28;20028;-83
2021/10/24 08:28:11;;;;;;;8.27;6.70;;;13.00;99.90;;;;;;5054314;28;20104;-82
2021/10/24 08:30:37;;;;;;;9.80;7.07;;;13.10;99.90;;;;;;5036383;28;20029;-82
2021/10/24 08:33:03;;;;;;;10.35;8.50;;;13.00;99.90;;;;;;5054047;28;20048;-82
2021/10/24 08:35:29;;;;;;;12.43;8.60;;;13.10;99.90;;;;;;5054163;28;20383;-82
2021/10/24 08:37:55;;;;;;;11.25;7.78;;;13.10;99.90;;;;;;5053951;28;20104;-82
2021/10/24 08:40:21;;;;;;;11.75;7.63;;;13.20;99.90;;;;;;5045386;28;20498;-82
2021/10/24 08:42:52;;;;;;;10.00;7.15;;;13.20;99.90;;;;;;5034058;28;20491;-81
2021/10/24 08:45:19;;;;;;;10.85;7.43;;;13.20;99.90;;;;;;5034095;28;20059;-83
2021/10/24 08:47:45;;;;;;;11.10;7.97;;;13.30;99.90;;;;;;5033975;28;20451;-82
2021/10/24 08:50:12;;;;;;;12.32;8.55;;;13.30;99.90;;;;;;5033897;28;20053;-82
2021/10/24 08:52:39;;;;;;;9.68;6.97;;;13.30;99.90;;;;;;5016143;28;20018;-81
2021/10/24 08:55:07;;;;;;;8.25;6.63;;;13.30;99.90;;;;;;5033996;28;20029;-82
2021/10/24 08:57:34;;;;;;;13.18;7.30;;;13.30;99.90;;;;;;5033818;28;20028;-83
2021/10/24 09:00:00;;;;;;;10.10;7.13;;;13.40;99.90;;;;;;5033632;28;20033;-82
2021/10/24 09:02:56;;;;;;;11.18;6.80;;;13.40;99.90;;;;;;5016013;28;20395;-81
2021/10/24 09:05:32;;;;;;;7.60;6.30;;;13.50;99.90;;;;;;5033579;28;20053;-82
2021/10/24 09:07:58;;;;;;;8.25;5.88;;;13.60;99.90;;;;;;5037813;28;20100;-82
2021/10/24 09:10:45;;;;;;;8.55;6.35;;;13.60;99.90;;;;;;5053524;28;20017;-82
2021/10/24 09:13:14;;;;;;;6.63;5.68;;;13.70;99.90;;;;;;5035382;28;20017;-82
2021/10/24 09:15:55;;;;;;;9.45;5.85;;;13.70;99.90;;;;;;5052504;28;20383;-82
2021/10/24 09:18:28;;;;;;;7.55;6.25;;;13.70;99.90;;;;;;5053158;28;20060;-81
2021/10/24 09:20:54;;;;;;;6.85;5.00;;;13.70;99.90;;;;;;5053224;28;20083;-82
2021/10/24 09:23:20;;;;;;;5.00;4.00;;;13.70;99.90;;;;;;5035390;28;20020;-82
2021/10/24 09:25:53;;;;;;;9.02;4.90;;;13.80;99.90;;;;;;5053132;28;20032;-82
2021/10/24 09:28:21;;;;;;;6.53;5.15;;;13.80;99.90;;;;;;5035252;28;20053;-82
2021/10/24 09:30:57;;;;;;;10.40;5.72;;;13.80;99.90;;;;;;5053024;28;20086;-83
2021/10/24 09:33:24;;;;;;;8.02;5.18;;;13.80;99.90;;;;;;5053031;28;20033;-82
2021/10/24 09:35:50;;;;;;;5.95;5.05;;;13.90;99.90;;;;;;5035027;28;20024;-82
2021/10/24 09:38:18;;;;;;;5.65;5.05;;;14.00;99.90;;;;;;5052790;28;20056;-83
2021/10/24 09:40:56;;;;;;;7.10;4.72;;;14.00;99.90;;;;;;5051598;28;20025;-82
2021/10/24 09:43:27;;;;;;;7.53;4.95;;;14.00;99.90;;;;;;5051543;28;20125;-82
2021/10/24 09:45:56;;;;;;;5.45;4.88;;;14.00;99.90;;;;;;5052677;28;20035;-82
2021/10/24 09:48:23;;;;;;;4.55;4.15;;;14.00;99.90;;;;;;5052677;28;20056;-81
2021/10/24 09:50:58;;;;;;;7.15;3.97;;;14.10;99.90;;;;;;5051164;28;20025;-81
2021/10/24 09:53:26;;;;;;;6.15;5.00;;;14.20;99.90;;;;;;5055151;28;20075;-82
2021/10/24 09:55:55;;;;;;;17.42;4.20;;;14.20;99.90;;;;;;5051847;28;20116;-82
2021/10/24 09:58:32;;;;;;;4.43;4.00;;;14.30;99.90;;;;;;5049593;28;20025;-83
2021/10/24 10:00:59;;;;;;;4.55;4.10;;;14.30;99.90;;;;;;5052201;28;20025;-82
2021/10/24 10:03:25;;;;;;;4.13;3.75;;;14.30;99.90;;;;;;5051995;28;20514;-82
2021/10/24 10:05:53;;;;;;;6.43;4.57;;;14.30;99.90;;;;;;5052385;28;20386;-83
2021/10/24 10:08:19;;;;;;;6.68;4.20;;;14.30;99.90;;;;;;5052238;28;20055;-81
2021/10/24 10:10:49;;;;;;;9.55;4.22;;;14.40;99.90;;;;;;5052466;28;20551;-77
2021/10/24 10:13:21;;;;;;;6.05;4.70;;;14.40;99.90;;;;;;5052113;28;20068;-76
2021/10/24 10:15:49;;;;;;;6.90;4.55;;;14.40;99.90;;;;;;5052009;28;20044;-76
2021/10/24 10:18:16;;;;;;;6.20;4.70;;;14.40;99.90;;;;;;5051750;28;20123;-76
2021/10/24 10:20:49;;;;;;;5.40;4.40;;;14.40;99.90;;;;;;5049033;28;20053;-76
2021/10/24 10:23:20;;;;;;;4.65;4.20;;;14.50;99.90;;;;;;5028686;28;20357;-76
2021/10/24 10:25:45;;;;;;;4.32;3.83;;;14.60;99.90;;;;;;5050030;28;20021;-76
2021/10/24 10:28:35;;;;;;;4.40;4.00;;;14.70;99.90;;;;;;5051024;28;20375;-76
2021/10/24 10:31:15;;;;;;;4.63;4.10;;;14.70;99.90;;;;;;5046431;28;20451;-76
2021/10/24 10:33:41;;;;;;;4.35;3.58;;;14.60;99.90;;;;;;5048562;28;20087;-76
2021/10/24 10:36:08;;;;;;;5.75;4.18;;;14.60;99.90;;;;;;5033533;28;20064;-76
2021/10/24 10:38:42;;;;;;;5.00;3.88;;;14.60;99.90;;;;;;5049064;28;20037;-76
2021/10/24 10:41:15;;;;;;;5.60;3.90;;;14.60;99.90;;;;;;5018509;28;20391;-76
2021/10/24 10:44:00;;;;;;;5.63;4.57;;;14.60;99.90;;;;;;5030889;28;20059;-76
2021/10/24 10:46:29;;;;;;;3.88;3.58;;;14.60;99.90;;;;;;5030649;28;20032;-77
2021/10/24 10:48:55;;;;;;;7.03;4.68;;;14.80;99.90;;;;;;5047403;28;20045;-76
2021/10/24 10:51:25;;;;;;;7.40;4.30;;;14.80;99.90;;;;;;5050011;28;20114;-76
2021/10/24 10:54:00;;;;;;;4.65;4.25;;;14.90;99.90;;;;;;5032210;28;20028;-83
2021/10/24 10:56:53;;;;;;;7.05;5.05;;;15.00;99.90;;;;;;5032737;28;20021;-82
2021/10/24 10:59:37;;;;;;;7.68;4.00;;;15.10;99.90;;;;;;5050536;28;20475;-82
2021/10/24 11:02:20;;;;;;;8.18;4.40;;;15.10;99.90;;;;;;5033013;28;20418;-82
2021/10/24 11:04:47;;;;;;;5.30;4.50;;;15.20;99.90;;;;;;5050961;28;20114;-82
2021/10/24 11:07:33;;;;;;;4.45;4.05;;;15.20;99.90;;;;;;5050960;28;20111;-82
2021/10/24 11:09:59;;;;;;;6.22;4.40;;;15.20;99.90;;;;;;5034811;28;20020;-83
2021/10/24 11:12:37;;;;;;;6.60;4.32;;;15.20;99.90;;;;;;5050708;28;20100;-83
2021/10/24 11:15:25;;;;;;;4.20;3.47;;;15.20;99.90;;;;;;5048727;28;20170;-82
2021/10/24 11:17:51;;;;;;;5.05;4.45;;;15.20;99.90;;;;;;5031933;28;20049;-81
2021/10/24 11:20:40;;;;;;;5.05;4.40;;;15.30;99.90;;;;;;5049501;28;20074;-81
2021/10/24 11:23:10;;;;;;;4.70;4.30;;;15.50;99.90;;;;;;5051494;28;20027;-82
2021/10/24 11:25:38;;;;;;;9.60;5.20;;;15.50;99.90;;;;;;5051007;28;20044;-83
2021/10/24 11:28:12;;;;;;;7.07;4.65;;;15.50;99.90;;;;;;5030445;28;20025;-82
2021/10/24 11:30:39;;;;;;;7.47;4.20;;;15.50;99.90;;;;;;5033140;28;20017;-83
2021/10/24 11:33:06;;;;;;;5.40;4.30;;;15.60;99.90;;;;;;5050581;28;20021;-83
2021/10/24 11:35:33;;;;;;;6.95;4.32;;;15.60;99.90;;;;;;5050657;28;20025;-82
2021/10/24 11:38:03;;;;;;;5.22;4.40;;;15.60;99.90;;;;;;5050772;28;20037;-83
2021/10/24 11:40:40;;;;;;;6.25;4.35;;;15.70;99.90;;;;;;5053759;28;20017;-82
2021/10/24 11:43:19;;;;;;;4.53;3.90;;;15.70;99.90;;;;;;5052491;28;20040;-82
2021/10/24 11:45:45;;;;;;;6.20;3.92;;;15.70;99.90;;;;;;5052118;28;20025;-83
2021/10/24 11:48:12;;;;;;;6.13;3.60;;;15.70;99.90;;;;;;5057390;28;20033;-83
2021/10/24 11:50:46;;;;;;;5.30;3.13;;;15.70;99.90;;;;;;5054707;28;20052;-82
2021/10/24 11:53:32;;;;;;;4.80;3.75;;;15.60;99.90;;;;;;5053586;28;20021;-82
2021/10/24 11:56:12;;;;;;;3.13;2.83;;;15.70;99.90;;;;;;5034399;28;20403;-82
2021/10/24 12:01:19;;;;;;;4.35;3.30;;;15.70;99.90;;;;;;5054722;28;20025;-82
2021/10/24 12:04:09;;;;;;;3.28;2.97;;;15.70;99.70;;;;;;5054607;28;20032;-82
2021/10/24 12:06:53;;;;;;;7.53;3.50;;;15.80;99.90;;;;;;5035356;28;20382;-82
2021/10/24 12:09:32;;;;;;;3.55;3.20;;;15.80;99.90;;;;;;5054520;28;20533;-82
2021/10/24 12:12:22;;;;;;;3.30;3.00;;;15.70;98.80;;;;;;5054804;28;20017;-82
2021/10/24 12:14:52;;;;;;;7.65;3.08;;;15.70;98.60;;;;;;5051524;28;20025;-82
2021/10/24 12:17:33;;;;;;;4.38;3.75;;;15.70;99.70;;;;;;5053763;28;20056;-82
2021/10/24 12:20:07;;;;;;;6.03;3.20;;;15.70;99.70;;;;;;5054622;28;20430;-83
2021/10/24 12:22:39;;;;;;;3.38;3.10;;;15.70;99.50;;;;;;5054439;28;20048;-83
2021/10/24 12:25:05;;;;;;;4.00;2.28;;;15.70;99.00;;;;;;5054234;28;20016;-82
2021/10/24 12:27:35;;;;;;;2.22;1.98;;;15.90;99.40;;;;;;5054293;28;20020;-82
2021/10/24 12:30:07;;;;;;;2.88;2.65;;;15.90;99.00;;;;;;5054130;28;20021;-83
2021/10/24 12:32:34;;;;;;;2.75;2.33;;;15.90;98.90;;;;;;5054413;28;20021;-83
2021/10/24 12:35:05;;;;;;;3.38;1.90;;;15.90;99.30;;;;;;5054045;28;20045;-83
2021/10/24 12:37:31;;;;;;;2.55;2.35;;;15.90;99.60;;;;;;5053897;28;20029;-82
2021/10/24 12:40:25;;;;;;;3.90;2.30;;;15.90;99.90;;;;;;5054061;28;20025;-83
2021/10/24 12:43:11;;;;;;;2.45;2.25;;;16.00;98.50;;;;;;5053973;28;20032;-83